createdAt,value
2023-01-05T00:00:02.674Z,10.11
2023-01-05T03:30:01.875Z,9.22
2023-01-05T03:45:02.262Z,9.15
2023-01-05T04:00:02.325Z,9.22
2023-01-05T04:15:02.323Z,9.1
2023-01-05T04:30:01.937Z,9.9
2023-01-05T04:45:02.324Z,9.13
2023-01-05T05:00:01.415Z,9.11
2023-01-05T05:15:07.848Z,9.22
2023-01-05T05:30:01.886Z,9.38
2023-01-05T05:45:02.455Z,9.6
2023-01-05T06:00:01.614Z,9.26
2023-01-05T06:15:02.578Z,9.19
2023-01-05T06:30:02.142Z,9.3
2023-01-05T06:45:01.373Z,9.27
2023-01-05T07:00:01.851Z,9.34
2023-01-05T07:15:02.771Z,9.35
2023-01-05T07:30:01.948Z,9.3
2023-01-05T07:45:02.479Z,9.5
2023-01-05T08:00:02.046Z,9.84
2023-01-05T08:15:02.212Z,10.23
2023-01-05T08:30:01.815Z,10.42
2023-01-05T08:45:02.243Z,10.81
2023-01-05T09:00:02.417Z,11.9
2023-01-05T09:15:02.294Z,11.2
2023-01-05T09:30:02.194Z,11.4
2023-01-05T09:45:01.846Z,11.23
2023-01-05T10:00:02.307Z,11.73
2023-01-05T10:15:02.013Z,11.6
2023-01-05T10:30:02.352Z,11.32
2023-01-05T10:45:01.516Z,11.3
2023-01-05T11:00:02.540Z,11.35
2023-01-05T11:15:01.966Z,11.39
2023-01-05T11:30:02.626Z,11.28
2023-01-05T11:45:01.688Z,11.65
2023-01-05T12:00:02.742Z,11.59
2023-01-05T12:15:02.207Z,11.68
2023-01-05T12:45:01.966Z,11.77
2023-01-05T13:00:02.888Z,11.76
2023-01-05T13:15:02.115Z,11.72
2023-01-05T13:30:02.085Z,11.68
2023-01-05T13:45:02.267Z,11.48
2023-01-05T14:00:11.167Z,11.18
2023-01-05T14:15:01.527Z,11.5
2023-01-05T14:30:01.688Z,10.84
2023-01-05T14:45:01.877Z,10.61
2023-01-05T15:00:02.851Z,10.5
2023-01-05T15:15:02.138Z,10.18
2023-01-05T15:30:01.505Z,9.81
2023-01-05T15:45:02.037Z,9.56
2023-01-05T16:00:01.941Z,9.27
2023-01-05T16:15:02.149Z,9.22
2023-01-05T16:30:01.957Z,9.14
2023-01-05T16:45:02.292Z,8.97
2023-01-05T17:00:01.437Z,8.73
2023-01-05T17:15:02.221Z,8.77
2023-01-05T17:30:01.531Z,8.81
2023-01-05T17:45:02.263Z,8.42
2023-01-05T18:00:02.024Z,8.31
2023-01-05T18:15:02.093Z,8.15
2023-01-05T18:30:01.850Z,8.3
2023-01-05T18:45:05.026Z,8.26
2023-01-05T19:00:03.049Z,8.19
2023-01-05T19:15:02.697Z,7.86
2023-01-05T19:30:01.528Z,7.26
2023-01-05T19:45:02.271Z,6.46
2023-01-05T20:00:02.816Z,6.21
2023-01-05T20:15:02.010Z,6.13
2023-01-05T20:30:02.546Z,5.98
2023-01-05T20:45:02.252Z,5.46
2023-01-05T21:00:02.567Z,5.38
2023-01-05T21:15:02.087Z,5.21
2023-01-05T21:30:02.507Z,4.84
2023-01-05T21:45:01.594Z,4.8
2023-01-05T22:00:02.737Z,4.82
2023-01-05T22:15:01.642Z,4.61
2023-01-05T22:30:03.179Z,4.28
2023-01-05T22:45:02.111Z,4.4
2023-01-05T23:00:01.405Z,4.23
2023-01-05T23:15:02.166Z,3.88
2023-01-05T23:30:01.438Z,3.55
2023-01-05T23:45:01.658Z,3.27
